createdAt,value
2016-12-06T00:00:09.239Z,1026.75
2016-12-06T00:01:09.867Z,1026.73
2016-12-06T00:02:10.557Z,1026.72
2016-12-06T00:03:11.235Z,1026.69
2016-12-06T00:04:11.949Z,1026.68
2016-12-06T00:05:12.641Z,1026.66
2016-12-06T00:06:13.257Z,1026.67
2016-12-06T00:07:13.904Z,1026.64
2016-12-06T00:08:14.554Z,1026.66
2016-12-06T00:09:15.235Z,1026.6
2016-12-06T00:10:15.906Z,1026.64
2016-12-06T00:11:16.591Z,1026.61
2016-12-06T00:12:17.335Z,1026.6
2016-12-06T00:13:17.967Z,1026.66
2016-12-06T00:14:18.621Z,1026.63
2016-12-06T00:15:19.277Z,1026.61
2016-12-06T00:16:19.951Z,1026.65
2016-12-06T00:17:20.616Z,1026.66
2016-12-06T00:18:21.285Z,1026.7
2016-12-06T00:19:22.161Z,1026.68
2016-12-06T00:20:22.904Z,1026.73
2016-12-06T00:21:23.535Z,1026.73
2016-12-06T00:22:24.189Z,1026.76
2016-12-06T00:23:24.934Z,1026.74
2016-12-06T00:24:25.636Z,1026.79
2016-12-06T00:25:26.303Z,1026.83
2016-12-06T00:26:27.001Z,1026.81
2016-12-06T00:27:27.622Z,1026.8
2016-12-06T00:28:28.454Z,1026.75
2016-12-06T00:29:29.127Z,1026.73
2016-12-06T00:30:29.843Z,1026.7
2016-12-06T00:31:30.526Z,1026.73
2016-12-06T00:32:31.196Z,1026.74
2016-12-06T00:33:31.840Z,1026.79
2016-12-06T00:34:32.468Z,1026.78
2016-12-06T00:35:33.127Z,1026.82
2016-12-06T00:36:33.820Z,1026.79
2016-12-06T00:37:34.459Z,1026.71
2016-12-06T00:38:35.107Z,1026.79
2016-12-06T00:39:35.740Z,1026.82
2016-12-06T00:40:36.424Z,1026.87
2016-12-06T00:41:37.127Z,1026.86
2016-12-06T00:42:37.779Z,1026.83
2016-12-06T00:43:38.542Z,1026.83
2016-12-06T00:44:39.279Z,1026.85
2016-12-06T00:45:39.878Z,1026.86
2016-12-06T00:46:40.521Z,1026.82
2016-12-06T00:47:41.161Z,1026.83
2016-12-06T00:48:41.789Z,1026.85
2016-12-06T00:49:42.445Z,1026.88
2016-12-06T00:50:43.150Z,1026.88
2016-12-06T00:51:43.822Z,1026.86
2016-12-06T00:52:44.548Z,1026.85
2016-12-06T00:53:45.173Z,1026.86
2016-12-06T00:54:45.798Z,1026.89
2016-12-06T00:55:46.466Z,1026.86
2016-12-06T00:56:47.112Z,1026.94
2016-12-06T00:57:47.763Z,1026.93
2016-12-06T00:58:48.404Z,1026.9
2016-12-06T00:59:49.043Z,1026.91
2016-12-06T01:00:49.700Z,1026.9
2016-12-06T01:01:50.410Z,1026.96
2016-12-06T01:02:51.084Z,1026.92
2016-12-06T01:03:51.786Z,1026.92
2016-12-06T01:04:52.458Z,1026.93
2016-12-06T01:05:53.082Z,1026.94
2016-12-06T01:06:53.735Z,1026.99
2016-12-06T01:07:54.361Z,1026.99
2016-12-06T01:08:55.008Z,1027.03
2016-12-06T01:09:55.679Z,1027.04
2016-12-06T01:10:56.334Z,1027.07
2016-12-06T01:11:57.004Z,1027.08
2016-12-06T01:12:57.652Z,1027.03
2016-12-06T01:13:58.303Z,1027.08
2016-12-06T01:14:58.938Z,1027.06
2016-12-06T01:15:59.581Z,1027.09
2016-12-06T01:17:00.259Z,1027.07
2016-12-06T01:18:00.946Z,1027.06
2016-12-06T01:19:01.581Z,1027.07
2016-12-06T01:20:02.225Z,1027.13
2016-12-06T01:21:02.873Z,1027.07
2016-12-06T01:22:03.478Z,1027.08
2016-12-06T01:23:04.167Z,1027.12
2016-12-06T01:24:04.892Z,1027.13
2016-12-06T01:25:05.576Z,1027.13
2016-12-06T01:26:06.325Z,1027.16
2016-12-06T01:27:07.151Z,1027.11
2016-12-06T01:28:07.764Z,1027.1
2016-12-06T01:29:08.415Z,1027.12
2016-12-06T01:30:09.045Z,1027.14
2016-12-06T01:31:09.730Z,1027.13
2016-12-06T01:32:10.469Z,1027.14
2016-12-06T01:33:11.384Z,1027.12
2016-12-06T01:34:12.006Z,1027.12
2016-12-06T01:35:12.636Z,1027.18
2016-12-06T01:36:13.291Z,1027.21
2016-12-06T01:37:13.996Z,1027.17
2016-12-06T01:38:14.811Z,1027.17
2016-12-06T01:39:15.525Z,1027.21
2016-12-06T01:40:16.172Z,1027.18
2016-12-06T01:41:16.826Z,1027.21
2016-12-06T01:42:17.622Z,1027.2
2016-12-06T01:43:18.370Z,1027.23
2016-12-06T01:44:19.145Z,1027.22
2016-12-06T01:45:19.822Z,1027.18
2016-12-06T01:46:20.506Z,1027.2
2016-12-06T01:47:21.202Z,1027.19
2016-12-06T01:48:21.949Z,1027.19
2016-12-06T01:49:22.685Z,1027.23
2016-12-06T01:50:23.403Z,1027.27
2016-12-06T01:51:24.138Z,1027.23
2016-12-06T01:52:24.800Z,1027.27
2016-12-06T01:53:25.449Z,1027.29
2016-12-06T01:54:26.108Z,1027.27
2016-12-06T01:55:26.783Z,1027.24
2016-12-06T01:56:27.464Z,1027.27
2016-12-06T01:57:28.118Z,1027.28
2016-12-06T01:58:28.796Z,1027.26
2016-12-06T01:59:29.441Z,1027.24
2016-12-06T02:00:30.082Z,1027.3
2016-12-06T02:01:30.714Z,1027.26
2016-12-06T02:02:31.344Z,1027.27
2016-12-06T02:03:31.967Z,1027.32
2016-12-06T02:04:32.598Z,1027.32
2016-12-06T02:05:33.267Z,1027.2
2016-12-06T02:06:33.994Z,1027.22
2016-12-06T02:07:34.714Z,1027.21
2016-12-06T02:08:35.332Z,1027.21
2016-12-06T02:09:35.970Z,1027.17
2016-12-06T02:10:36.701Z,1027.23
2016-12-06T02:11:37.359Z,1027.22
2016-12-06T02:12:38.120Z,1027.22
2016-12-06T02:13:38.776Z,1027.21
2016-12-06T02:14:39.436Z,1027.22
2016-12-06T02:15:40.142Z,1027.24
2016-12-06T02:16:40.898Z,1027.29
2016-12-06T02:17:41.545Z,1027.27
2016-12-06T02:18:42.234Z,1027.25
2016-12-06T02:19:42.869Z,1027.24
2016-12-06T02:20:43.504Z,1027.22
2016-12-06T02:21:44.200Z,1027.24
2016-12-06T02:22:45.783Z,1027.26
2016-12-06T02:23:46.206Z,1027.33
2016-12-06T02:24:46.879Z,1027.3
2016-12-06T02:25:47.512Z,1027.32
2016-12-06T02:26:48.153Z,1027.34
2016-12-06T02:27:49.396Z,1027.31
2016-12-06T02:28:50.374Z,1027.35
2016-12-06T02:29:51.045Z,1027.35
2016-12-06T02:30:51.688Z,1027.37
2016-12-06T02:31:52.369Z,1027.35
2016-12-06T02:32:53.030Z,1027.31
2016-12-06T02:33:53.679Z,1027.38
2016-12-06T02:34:54.331Z,1027.38
2016-12-06T02:35:55.020Z,1027.41
2016-12-06T02:36:55.660Z,1027.44
2016-12-06T02:37:56.375Z,1027.44
2016-12-06T02:38:57.289Z,1027.46
2016-12-06T02:39:58.085Z,1027.47
2016-12-06T02:40:58.942Z,1027.51
2016-12-06T02:42:00.205Z,1027.51
2016-12-06T02:43:01.211Z,1027.49
2016-12-06T02:44:02.145Z,1027.5
2016-12-06T02:45:02.855Z,1027.46
2016-12-06T02:46:03.487Z,1027.46
2016-12-06T02:47:04.135Z,1027.51
2016-12-06T02:48:04.776Z,1027.49
2016-12-06T02:49:06.324Z,1027.47
2016-12-06T02:50:07.304Z,1027.5
2016-12-06T02:51:07.955Z,1027.48
2016-12-06T02:52:08.640Z,1027.49
2016-12-06T02:53:09.236Z,1027.53
2016-12-06T02:54:09.918Z,1027.52
2016-12-06T02:55:10.648Z,1027.58
2016-12-06T02:56:11.322Z,1027.63
2016-12-06T02:57:12.001Z,1027.66
2016-12-06T02:58:12.767Z,1027.67
2016-12-06T02:59:14.941Z,1027.7
2016-12-06T03:00:16.150Z,1027.66
2016-12-06T03:01:16.848Z,1027.71
2016-12-06T03:02:17.627Z,1027.71
2016-12-06T03:03:18.199Z,1027.65
2016-12-06T03:04:18.949Z,1027.64
2016-12-06T03:05:19.636Z,1027.66
2016-12-06T03:06:20.345Z,1027.62
2016-12-06T03:07:20.927Z,1027.67
2016-12-06T03:08:21.547Z,1027.68
2016-12-06T03:09:22.198Z,1027.66
2016-12-06T03:10:22.934Z,1027.69
2016-12-06T03:11:23.764Z,1027.67
2016-12-06T03:12:24.461Z,1027.67
2016-12-06T03:13:25.135Z,1027.65
2016-12-06T03:14:25.851Z,1027.67
2016-12-06T03:15:26.595Z,1027.69
2016-12-06T03:16:27.536Z,1027.69
2016-12-06T03:17:28.332Z,1027.68
2016-12-06T03:18:28.910Z,1027.67
2016-12-06T03:19:29.580Z,1027.7
2016-12-06T03:20:30.218Z,1027.66
2016-12-06T03:21:31.080Z,1027.68
2016-12-06T03:22:31.864Z,1027.66
2016-12-06T03:23:32.603Z,1027.65
2016-12-06T03:24:34.031Z,1027.63
2016-12-06T03:25:35.562Z,1027.71
2016-12-06T03:26:36.673Z,1027.73
2016-12-06T03:27:38.406Z,1027.76
2016-12-06T03:28:39.778Z,1027.73
2016-12-06T03:29:40.425Z,1027.78
2016-12-06T03:30:41.091Z,1027.82
2016-12-06T03:31:41.804Z,1027.81
2016-12-06T03:32:42.545Z,1027.8
2016-12-06T03:33:44.421Z,1027.79
2016-12-06T03:34:45.103Z,1027.83
2016-12-06T03:35:45.875Z,1027.78
2016-12-06T03:36:46.491Z,1027.77
2016-12-06T03:37:47.191Z,1027.75
2016-12-06T03:38:47.914Z,1027.74
2016-12-06T03:39:48.714Z,1027.74
2016-12-06T03:40:49.408Z,1027.67
2016-12-06T03:41:50.094Z,1027.76
2016-12-06T03:42:50.735Z,1027.78
2016-12-06T03:43:51.438Z,1027.77
2016-12-06T03:44:52.706Z,1027.79
2016-12-06T03:45:54.032Z,1027.78
2016-12-06T03:46:55.268Z,1027.79
2016-12-06T03:47:57.681Z,1027.81
2016-12-06T03:48:58.453Z,1027.77
2016-12-06T03:49:59.092Z,1027.78
2016-12-06T03:50:59.742Z,1027.86
2016-12-06T03:52:00.410Z,1027.87
2016-12-06T03:53:01.248Z,1027.89
2016-12-06T03:54:02.087Z,1027.88
2016-12-06T03:55:02.740Z,1027.88
2016-12-06T03:56:03.402Z,1027.88
2016-12-06T03:57:04.111Z,1027.91
2016-12-06T03:58:04.908Z,1027.91
2016-12-06T03:59:05.601Z,1027.9
2016-12-06T04:00:06.365Z,1027.87
2016-12-06T04:01:06.949Z,1027.89
2016-12-06T04:02:07.611Z,1027.87
2016-12-06T04:03:08.250Z,1027.87
2016-12-06T04:04:08.904Z,1027.91
2016-12-06T04:05:09.683Z,1027.87
2016-12-06T04:06:10.450Z,1027.87
2016-12-06T04:07:11.269Z,1027.86
2016-12-06T04:08:12.703Z,1027.81
2016-12-06T04:09:14.733Z,1027.8
2016-12-06T04:10:16.680Z,1027.82
2016-12-06T04:11:17.534Z,1027.85
2016-12-06T04:12:18.182Z,1027.85
2016-12-06T04:13:18.846Z,1027.86
2016-12-06T04:14:19.635Z,1027.81
2016-12-06T04:15:20.329Z,1027.81
2016-12-06T04:16:20.980Z,1027.81
2016-12-06T04:17:21.736Z,1027.8
2016-12-06T04:18:22.399Z,1027.73
2016-12-06T04:19:23.036Z,1027.73
2016-12-06T04:20:23.660Z,1027.7
2016-12-06T04:21:24.485Z,1027.73
2016-12-06T04:22:25.166Z,1027.78
2016-12-06T04:23:25.794Z,1027.85
2016-12-06T04:24:26.461Z,1027.78
2016-12-06T04:25:27.119Z,1027.81
2016-12-06T04:26:27.755Z,1027.87
2016-12-06T04:27:28.394Z,1027.76
2016-12-06T04:28:29.124Z,1027.79
2016-12-06T04:29:29.771Z,1027.83
2016-12-06T04:30:30.455Z,1027.87
2016-12-06T04:31:31.144Z,1027.89
2016-12-06T04:32:31.793Z,1027.91
2016-12-06T04:33:32.431Z,1027.94
2016-12-06T04:34:33.054Z,1027.96
2016-12-06T04:35:33.833Z,1027.96
2016-12-06T04:36:34.688Z,1027.96
2016-12-06T04:37:35.642Z,1027.98
2016-12-06T04:38:36.479Z,1027.97
2016-12-06T04:39:37.144Z,1027.94
2016-12-06T04:40:38.011Z,1027.95
2016-12-06T04:41:38.940Z,1027.92
2016-12-06T04:42:40.028Z,1027.86
2016-12-06T04:43:40.801Z,1027.93
2016-12-06T04:44:41.532Z,1027.94
2016-12-06T04:45:42.174Z,1027.96
2016-12-06T04:46:42.862Z,1027.96
2016-12-06T04:47:43.567Z,1027.96
2016-12-06T04:48:44.244Z,1027.95
2016-12-06T04:49:45.001Z,1027.97
2016-12-06T04:50:46.079Z,1027.99
2016-12-06T04:51:50.624Z,1027.94
2016-12-06T04:52:54.949Z,1027.94
2016-12-06T04:53:56.759Z,1027.91
2016-12-06T04:54:57.413Z,1027.97
2016-12-06T04:55:58.047Z,1027.96
2016-12-06T04:57:00.501Z,1028
2016-12-06T04:58:02.208Z,1027.98
2016-12-06T04:59:06.677Z,1028.02
2016-12-06T05:00:10.072Z,1027.98
2016-12-06T05:01:13.273Z,1027.95
2016-12-06T05:02:16.190Z,1027.97
2016-12-06T05:03:17.082Z,1027.96
2016-12-06T05:04:18.359Z,1027.94
2016-12-06T05:05:19.184Z,1027.95
2016-12-06T05:06:20.158Z,1027.96
2016-12-06T05:07:20.887Z,1027.99
2016-12-06T05:08:22.387Z,1027.99
2016-12-06T05:09:23.438Z,1027.98
2016-12-06T05:10:24.077Z,1027.99
2016-12-06T05:11:24.748Z,1028.05
2016-12-06T05:12:25.975Z,1028.04
2016-12-06T05:13:26.810Z,1028.06
2016-12-06T05:14:27.477Z,1028.05
2016-12-06T05:15:28.112Z,1027.98
2016-12-06T05:16:28.817Z,1027.98
2016-12-06T05:17:29.421Z,1027.95
2016-12-06T05:18:30.133Z,1027.94
2016-12-06T05:19:30.874Z,1028.01
2016-12-06T05:20:31.480Z,1028.03
2016-12-06T05:21:32.102Z,1028.01
2016-12-06T05:22:32.746Z,1028
2016-12-06T05:23:33.430Z,1027.99
2016-12-06T05:24:34.168Z,1028
2016-12-06T05:25:34.857Z,1027.89
2016-12-06T05:26:35.527Z,1027.95
2016-12-06T05:27:36.170Z,1027.99
2016-12-06T05:28:36.819Z,1028.01
2016-12-06T05:29:37.496Z,1028.02
2016-12-06T05:30:38.094Z,1028.04
2016-12-06T05:31:38.728Z,1028.09
2016-12-06T05:32:39.345Z,1028.08
2016-12-06T05:33:39.959Z,1028.06
2016-12-06T05:34:40.586Z,1028.07
2016-12-06T05:35:41.259Z,1028.04
2016-12-06T05:36:41.879Z,1028
2016-12-06T05:37:42.529Z,1028.07
2016-12-06T05:38:43.150Z,1028.04
2016-12-06T05:39:43.769Z,1028.04
2016-12-06T05:40:44.409Z,1028.04
2016-12-06T05:41:45.045Z,1028.06
2016-12-06T05:42:45.632Z,1028.08
2016-12-06T05:43:46.257Z,1028.08
2016-12-06T05:44:46.867Z,1028.14
2016-12-06T05:45:47.495Z,1028.18
2016-12-06T05:46:48.138Z,1028.17
2016-12-06T05:47:48.967Z,1028.22
2016-12-06T05:48:49.755Z,1028.25
2016-12-06T05:49:51.801Z,1028.28
2016-12-06T05:50:53.582Z,1028.31
2016-12-06T05:51:54.586Z,1028.32
2016-12-06T05:52:55.588Z,1028.34
2016-12-06T05:53:56.806Z,1028.35
2016-12-06T05:54:57.826Z,1028.37
2016-12-06T05:55:58.517Z,1028.37
2016-12-06T05:56:59.367Z,1028.42
2016-12-06T05:58:00.035Z,1028.39
2016-12-06T05:59:00.852Z,1028.35
2016-12-06T06:00:01.567Z,1028.39
2016-12-06T06:01:02.213Z,1028.4
2016-12-06T06:02:02.858Z,1028.44
2016-12-06T06:03:03.507Z,1028.53
2016-12-06T06:04:04.148Z,1028.54
2016-12-06T06:05:04.765Z,1028.53
2016-12-06T06:06:05.377Z,1028.56
2016-12-06T06:07:06.018Z,1028.58
2016-12-06T06:08:06.650Z,1028.59
2016-12-06T06:09:07.279Z,1028.6
2016-12-06T06:10:07.954Z,1028.59
2016-12-06T06:11:08.550Z,1028.61
2016-12-06T06:12:09.182Z,1028.6
2016-12-06T06:13:09.797Z,1028.56
2016-12-06T06:14:10.493Z,1028.6
2016-12-06T06:15:11.144Z,1028.56
2016-12-06T06:16:11.759Z,1028.58
2016-12-06T06:17:12.400Z,1028.68
2016-12-06T06:18:13.025Z,1028.7
2016-12-06T06:19:13.681Z,1028.67
2016-12-06T06:20:14.295Z,1028.71
2016-12-06T06:21:14.937Z,1028.73
2016-12-06T06:22:15.594Z,1028.73
2016-12-06T06:23:16.213Z,1028.76
2016-12-06T06:24:16.838Z,1028.82
2016-12-06T06:25:17.460Z,1028.82
2016-12-06T06:26:18.077Z,1028.79
2016-12-06T06:27:18.695Z,1028.83
2016-12-06T06:28:19.314Z,1028.75
2016-12-06T06:29:19.932Z,1028.77
2016-12-06T06:30:20.565Z,1028.75
2016-12-06T06:31:21.207Z,1028.8
2016-12-06T06:32:21.856Z,1028.81
2016-12-06T06:33:22.482Z,1028.83
2016-12-06T06:34:23.141Z,1028.84
2016-12-06T06:35:23.765Z,1028.85
2016-12-06T06:36:24.386Z,1028.86
2016-12-06T06:37:25.041Z,1028.87
2016-12-06T06:38:25.653Z,1028.83
2016-12-06T06:39:26.293Z,1028.8
2016-12-06T06:40:26.908Z,1028.82
2016-12-06T06:41:27.542Z,1028.87
2016-12-06T06:42:28.169Z,1028.87
2016-12-06T06:43:28.792Z,1028.96
2016-12-06T06:44:29.415Z,1028.98
2016-12-06T06:45:30.033Z,1028.96
2016-12-06T06:46:30.673Z,1028.99
2016-12-06T06:47:31.291Z,1029.04
2016-12-06T06:48:31.935Z,1029.05
2016-12-06T06:49:32.550Z,1029.01
2016-12-06T06:50:33.212Z,1028.95
2016-12-06T06:51:33.844Z,1028.91
2016-12-06T06:52:34.501Z,1028.94
2016-12-06T06:53:35.152Z,1028.96
2016-12-06T06:54:35.863Z,1028.94
2016-12-06T06:55:36.517Z,1028.97
2016-12-06T06:56:37.217Z,1028.98
2016-12-06T06:57:37.923Z,1029.01
2016-12-06T06:58:38.569Z,1029.02
2016-12-06T06:59:39.264Z,1029.06
2016-12-06T07:00:39.922Z,1029.07
2016-12-06T07:01:40.584Z,1029.09
2016-12-06T07:02:41.199Z,1029.1
2016-12-06T07:03:41.841Z,1029.03
2016-12-06T07:04:42.530Z,1029.02
2016-12-06T07:05:43.195Z,1029.08
2016-12-06T07:06:43.858Z,1029.12
2016-12-06T07:07:44.503Z,1029.21
2016-12-06T07:08:45.293Z,1029.23
2016-12-06T07:09:45.892Z,1029.25
2016-12-06T07:10:46.511Z,1029.31
2016-12-06T07:11:47.162Z,1029.26
2016-12-06T07:12:47.827Z,1029.26
2016-12-06T07:13:48.563Z,1029.2
2016-12-06T07:14:49.234Z,1029.13
2016-12-06T07:15:49.862Z,1029.11
2016-12-06T07:16:50.510Z,1029.16
2016-12-06T07:17:51.141Z,1029.14
2016-12-06T07:18:51.784Z,1029.14
2016-12-06T07:19:52.432Z,1029.19
2016-12-06T07:20:53.062Z,1029.28
2016-12-06T07:21:53.746Z,1029.3
2016-12-06T07:22:54.422Z,1029.3
2016-12-06T07:23:55.042Z,1029.31
2016-12-06T07:24:55.707Z,1029.28
2016-12-06T07:25:56.371Z,1029.31
2016-12-06T07:26:57.030Z,1029.29
2016-12-06T07:27:57.678Z,1029.25
2016-12-06T07:28:58.369Z,1029.26
2016-12-06T07:29:59.018Z,1029.28
2016-12-06T07:30:59.683Z,1029.29
2016-12-06T07:32:00.302Z,1029.31
2016-12-06T07:33:00.919Z,1029.31
2016-12-06T07:34:01.535Z,1029.36
2016-12-06T07:35:02.163Z,1029.4
2016-12-06T07:36:02.776Z,1029.39
2016-12-06T07:37:03.397Z,1029.4
2016-12-06T07:38:04.021Z,1029.4
2016-12-06T07:39:04.669Z,1029.4
2016-12-06T07:40:05.291Z,1029.42
2016-12-06T07:41:05.946Z,1029.43
2016-12-06T07:42:06.572Z,1029.49
2016-12-06T07:43:07.192Z,1029.51
2016-12-06T07:44:07.822Z,1029.53
2016-12-06T07:45:08.451Z,1029.55
2016-12-06T07:46:09.064Z,1029.57
2016-12-06T07:47:09.728Z,1029.52
2016-12-06T07:48:10.364Z,1029.51
2016-12-06T07:49:10.977Z,1029.6
2016-12-06T07:50:11.634Z,1029.62
2016-12-06T07:51:12.280Z,1029.61
2016-12-06T07:52:12.918Z,1029.66
2016-12-06T07:53:13.530Z,1029.63
2016-12-06T07:54:14.145Z,1029.67
2016-12-06T07:55:14.802Z,1029.64
2016-12-06T07:56:15.416Z,1029.72
2016-12-06T07:57:16.073Z,1029.76
2016-12-06T07:58:16.714Z,1029.74
2016-12-06T07:59:17.420Z,1029.67
2016-12-06T08:00:18.044Z,1029.63
2016-12-06T08:01:18.690Z,1029.69
2016-12-06T08:02:19.329Z,1029.74
2016-12-06T08:03:19.962Z,1029.74
2016-12-06T08:04:20.627Z,1029.7
2016-12-06T08:05:21.267Z,1029.75
2016-12-06T08:06:21.904Z,1029.8
2016-12-06T08:07:22.549Z,1029.78
2016-12-06T08:08:23.210Z,1029.78
2016-12-06T08:09:23.863Z,1029.82
2016-12-06T08:10:24.520Z,1029.82
2016-12-06T08:11:25.180Z,1029.83
2016-12-06T08:12:25.849Z,1029.83
2016-12-06T08:13:26.490Z,1029.87
2016-12-06T08:14:27.152Z,1029.89
2016-12-06T08:15:27.800Z,1029.8
2016-12-06T08:16:28.520Z,1029.86
2016-12-06T08:17:29.176Z,1029.83
2016-12-06T08:18:29.809Z,1029.81
2016-12-06T08:19:30.460Z,1029.8
2016-12-06T08:20:31.167Z,1029.81
2016-12-06T08:21:31.806Z,1029.81
2016-12-06T08:22:32.446Z,1029.81
2016-12-06T08:23:33.085Z,1029.86
2016-12-06T08:24:33.704Z,1029.87
2016-12-06T08:25:34.335Z,1029.83
2016-12-06T08:26:34.969Z,1029.85
2016-12-06T08:27:35.610Z,1029.86
2016-12-06T08:28:36.251Z,1029.9
2016-12-06T08:29:36.882Z,1029.86
2016-12-06T08:30:37.513Z,1029.83
2016-12-06T08:31:38.154Z,1029.86
2016-12-06T08:32:38.790Z,1029.88
2016-12-06T08:33:39.419Z,1029.83
2016-12-06T08:34:40.074Z,1029.85
2016-12-06T08:35:40.702Z,1029.89
2016-12-06T08:36:41.330Z,1029.89
2016-12-06T08:37:41.963Z,1029.9
2016-12-06T08:38:42.635Z,1029.93
2016-12-06T08:39:43.285Z,1029.97
2016-12-06T08:40:43.927Z,1029.95
2016-12-06T08:41:44.591Z,1029.92
2016-12-06T08:42:45.230Z,1029.93
2016-12-06T08:43:45.909Z,1029.95
2016-12-06T08:44:46.546Z,1029.98
2016-12-06T08:45:47.214Z,1030.04
2016-12-06T08:46:47.901Z,1030.01
2016-12-06T08:47:48.558Z,1030.06
2016-12-06T08:48:49.210Z,1030
2016-12-06T08:49:49.877Z,1030.03
2016-12-06T08:50:50.511Z,1030.03
2016-12-06T08:51:51.161Z,1030.05
2016-12-06T08:52:51.803Z,1030.04
2016-12-06T08:53:52.448Z,1030.05
2016-12-06T08:54:53.094Z,1030.07
2016-12-06T08:55:53.716Z,1030.07
2016-12-06T08:56:54.366Z,1030.12
2016-12-06T08:57:55.009Z,1030.12
2016-12-06T08:58:55.672Z,1030.14
2016-12-06T08:59:56.372Z,1030.09
2016-12-06T09:00:57.067Z,1030.14
2016-12-06T09:01:57.707Z,1030.12
2016-12-06T09:02:58.311Z,1030.11
2016-12-06T09:03:58.941Z,1030.18
2016-12-06T09:04:59.570Z,1030.19
2016-12-06T09:06:00.206Z,1030.2
2016-12-06T09:07:00.834Z,1030.21
2016-12-06T09:08:01.478Z,1030.19
2016-12-06T09:09:02.102Z,1030.19
2016-12-06T09:10:02.732Z,1030.25
2016-12-06T09:11:03.369Z,1030.25
2016-12-06T09:12:03.994Z,1030.23
2016-12-06T09:13:04.637Z,1030.29
2016-12-06T09:14:05.289Z,1030.29
2016-12-06T09:15:05.934Z,1030.29
2016-12-06T09:16:06.572Z,1030.33
2016-12-06T09:17:07.225Z,1030.32
2016-12-06T09:18:07.859Z,1030.32
2016-12-06T09:19:08.485Z,1030.29
2016-12-06T09:20:09.117Z,1030.31
2016-12-06T09:21:09.738Z,1030.33
2016-12-06T09:22:10.366Z,1030.33
2016-12-06T09:23:10.992Z,1030.32
2016-12-06T09:24:11.636Z,1030.36
2016-12-06T09:25:12.262Z,1030.38
2016-12-06T09:26:12.890Z,1030.45
2016-12-06T09:27:13.517Z,1030.39
2016-12-06T09:28:14.152Z,1030.44
2016-12-06T09:29:14.780Z,1030.43
2016-12-06T09:30:15.422Z,1030.45
2016-12-06T09:31:16.083Z,1030.41
2016-12-06T09:32:16.728Z,1030.4
2016-12-06T09:33:17.365Z,1030.47
2016-12-06T09:34:17.990Z,1030.45
2016-12-06T09:35:18.634Z,1030.49
2016-12-06T09:36:19.262Z,1030.49
2016-12-06T09:37:19.891Z,1030.44
2016-12-06T09:38:20.528Z,1030.45
2016-12-06T09:39:21.173Z,1030.46
2016-12-06T09:40:21.811Z,1030.43
2016-12-06T09:41:22.450Z,1030.43
2016-12-06T09:42:23.092Z,1030.43
2016-12-06T09:43:23.745Z,1030.4
2016-12-06T09:44:24.389Z,1030.4
2016-12-06T09:45:25.027Z,1030.41
2016-12-06T09:46:25.662Z,1030.45
2016-12-06T09:47:26.298Z,1030.43
2016-12-06T09:48:26.939Z,1030.46
2016-12-06T09:49:27.596Z,1030.41
2016-12-06T09:50:28.233Z,1030.45
2016-12-06T09:51:28.894Z,1030.47
2016-12-06T09:52:29.534Z,1030.44
2016-12-06T09:53:30.165Z,1030.46
2016-12-06T09:54:30.795Z,1030.48
2016-12-06T09:55:31.460Z,1030.48
2016-12-06T09:56:32.094Z,1030.49
2016-12-06T09:57:32.749Z,1030.51
2016-12-06T09:58:33.382Z,1030.55
2016-12-06T09:59:34.038Z,1030.55
2016-12-06T10:00:34.674Z,1030.53
2016-12-06T10:01:35.306Z,1030.55
2016-12-06T10:02:35.956Z,1030.6
2016-12-06T10:03:36.632Z,1030.6
2016-12-06T10:04:37.274Z,1030.63
2016-12-06T10:05:37.920Z,1030.64
2016-12-06T10:06:38.548Z,1030.65
2016-12-06T10:07:39.201Z,1030.66
2016-12-06T10:08:39.846Z,1030.72
2016-12-06T10:09:40.475Z,1030.69
2016-12-06T10:10:41.110Z,1030.72
2016-12-06T10:11:41.752Z,1030.67
2016-12-06T10:12:42.460Z,1030.69
2016-12-06T10:13:43.092Z,1030.65
2016-12-06T10:14:43.714Z,1030.68
2016-12-06T10:15:44.357Z,1030.69
2016-12-06T10:16:44.980Z,1030.73
2016-12-06T10:17:45.635Z,1030.73
2016-12-06T10:18:46.265Z,1030.74
2016-12-06T10:19:46.894Z,1030.76
2016-12-06T10:20:47.547Z,1030.74
2016-12-06T10:21:48.212Z,1030.75
2016-12-06T10:22:48.860Z,1030.73
2016-12-06T10:23:49.513Z,1030.76
2016-12-06T10:24:50.142Z,1030.74
2016-12-06T10:25:50.783Z,1030.73
2016-12-06T10:26:51.429Z,1030.72
2016-12-06T10:27:52.048Z,1030.69
2016-12-06T10:28:52.675Z,1030.67
2016-12-06T10:29:53.319Z,1030.7
2016-12-06T10:30:53.987Z,1030.7
2016-12-06T10:31:54.627Z,1030.72
2016-12-06T10:32:55.255Z,1030.72
2016-12-06T10:33:55.875Z,1030.73
2016-12-06T10:34:56.499Z,1030.73
2016-12-06T10:35:57.161Z,1030.75
2016-12-06T10:36:57.841Z,1030.77
2016-12-06T10:37:58.484Z,1030.79
2016-12-06T10:38:59.110Z,1030.78
2016-12-06T10:39:59.740Z,1030.81
2016-12-06T10:41:00.394Z,1030.82
2016-12-06T10:42:01.050Z,1030.82
2016-12-06T10:43:01.695Z,1030.81
2016-12-06T10:44:02.322Z,1030.84
2016-12-06T10:45:02.984Z,1030.84
2016-12-06T10:46:03.634Z,1030.87
2016-12-06T10:47:04.255Z,1030.87
2016-12-06T10:48:04.867Z,1030.94
2016-12-06T10:49:05.492Z,1030.91
2016-12-06T10:50:06.145Z,1030.97
2016-12-06T10:51:06.789Z,1030.97
2016-12-06T10:52:07.404Z,1030.99
2016-12-06T10:53:08.038Z,1031.03
2016-12-06T10:54:08.672Z,1031.01
2016-12-06T10:55:09.317Z,1031.04
2016-12-06T10:56:09.972Z,1031.04
2016-12-06T10:57:10.616Z,1031.02
2016-12-06T10:58:11.277Z,1031.04
2016-12-06T10:59:11.922Z,1031.02
2016-12-06T11:00:12.583Z,1030.97
2016-12-06T11:01:13.245Z,1030.97
2016-12-06T11:02:13.898Z,1030.96
2016-12-06T11:03:14.515Z,1030.95
2016-12-06T11:04:15.149Z,1030.97
2016-12-06T11:05:16.002Z,1030.97
2016-12-06T11:06:16.643Z,1031
2016-12-06T11:07:17.286Z,1030.97
2016-12-06T11:08:17.916Z,1030.97
2016-12-06T11:09:18.540Z,1030.97
2016-12-06T11:10:19.181Z,1030.98
2016-12-06T11:11:19.811Z,1030.95
2016-12-06T11:12:20.446Z,1030.99
2016-12-06T11:13:21.066Z,1030.93
2016-12-06T11:14:21.687Z,1030.9
2016-12-06T11:15:22.314Z,1030.91
2016-12-06T11:16:22.964Z,1030.91
2016-12-06T11:17:23.596Z,1030.92
2016-12-06T11:18:24.222Z,1030.93
2016-12-06T11:19:24.849Z,1030.94
2016-12-06T11:20:25.485Z,1030.9
2016-12-06T11:21:26.119Z,1030.92
2016-12-06T11:22:26.751Z,1030.9
2016-12-06T11:23:27.401Z,1030.92
2016-12-06T11:24:28.059Z,1030.9
2016-12-06T11:25:28.747Z,1030.91
2016-12-06T11:26:29.414Z,1030.97
2016-12-06T11:27:30.068Z,1030.91
2016-12-06T11:28:30.712Z,1030.97
2016-12-06T11:29:31.348Z,1030.93
2016-12-06T11:30:32.006Z,1031
2016-12-06T11:31:32.638Z,1030.92
2016-12-06T11:32:33.261Z,1031
2016-12-06T11:33:33.889Z,1031
2016-12-06T11:34:34.566Z,1030.99
2016-12-06T11:35:35.228Z,1031
2016-12-06T11:36:35.845Z,1031
2016-12-06T11:37:36.477Z,1031
2016-12-06T11:38:37.121Z,1030.98
2016-12-06T11:39:37.770Z,1030.97
2016-12-06T11:40:38.493Z,1030.98
2016-12-06T11:41:39.255Z,1030.93
2016-12-06T11:42:39.977Z,1030.94
2016-12-06T11:43:40.624Z,1030.97
2016-12-06T11:44:41.285Z,1030.95
2016-12-06T11:45:41.945Z,1030.95
2016-12-06T11:46:42.587Z,1030.92
2016-12-06T11:47:43.209Z,1030.92
2016-12-06T11:48:43.845Z,1030.93
2016-12-06T11:49:44.612Z,1030.92
2016-12-06T11:50:45.158Z,1030.88
2016-12-06T11:51:45.831Z,1030.86
2016-12-06T11:52:46.465Z,1030.86
2016-12-06T11:53:47.110Z,1030.86
2016-12-06T11:54:47.751Z,1030.83
2016-12-06T11:55:48.398Z,1030.83
2016-12-06T11:56:49.081Z,1030.85
2016-12-06T11:57:49.724Z,1030.85
2016-12-06T11:58:50.407Z,1030.87
2016-12-06T11:59:51.194Z,1030.87
2016-12-06T12:00:51.920Z,1030.85
2016-12-06T12:01:52.544Z,1030.91
2016-12-06T12:02:53.185Z,1030.91
2016-12-06T12:03:53.869Z,1030.91
2016-12-06T12:04:54.513Z,1030.9
2016-12-06T12:05:55.172Z,1030.88
2016-12-06T12:06:55.819Z,1030.88
2016-12-06T12:07:56.546Z,1030.85
2016-12-06T12:08:57.225Z,1030.89
2016-12-06T12:09:57.861Z,1030.91
2016-12-06T12:10:58.546Z,1030.87
2016-12-06T12:11:59.174Z,1030.84
2016-12-06T12:12:59.840Z,1030.83
2016-12-06T12:14:00.521Z,1030.85
2016-12-06T12:15:01.256Z,1030.86
2016-12-06T12:16:01.915Z,1030.89
2016-12-06T12:17:02.627Z,1030.87